Time;durP1;ratioP1;P1;durP2;ratioP2;P2;SDS_P1;SDS_P2;PMS_P1;PMS_P2;Temp;Humidity;BMP_temperature;BMP_pressure;BME280_temperature;BME280_humidity;BME280_pressure;Samples;Min_cycle;Max_cycle;Signal;HPM_P1;HPM_P2
2023/01/08 00:02:20;;;;;;;;;;;;;;;8.45;100.00;97614.88;5101878;28;19919;-75
2023/01/08 00:04:46;;;;;;;;;;;;;;;8.44;100.00;97615.97;5103121;28;19928;-76
2023/01/08 00:07:14;;;;;;;;;;;;;;;8.26;100.00;97609.16;5099595;28;19931;-75
2023/01/08 00:09:41;;;;;;;;;;;;;;;8.10;100.00;97613.56;5099654;28;19991;-76
2023/01/08 00:12:07;;;;;;;;;;;;;;;8.21;100.00;97613.63;5119767;28;19935;-77
2023/01/08 00:14:34;;;;;;;;;;;;;;;8.38;100.00;97603.69;5101981;28;19962;-77
2023/01/08 00:17:01;;;;;;;;;;;;;;;8.21;100.00;97598.47;5102049;28;19962;-77
2023/01/08 00:19:28;;;;;;;;;;;;;;;8.16;100.00;97598.44;5119854;28;19946;-77
2023/01/08 00:21:54;;;;;;;;;;;;;;;8.09;100.00;97589.88;5101219;28;19924;-76
2023/01/08 00:24:22;;;;;;;;;;;;;;;7.53;100.00;97585.91;5102277;28;19923;-75
2023/01/08 00:26:49;;;;;;;;;;;;;;;7.57;100.00;97579.06;5091604;28;19932;-72
2023/01/08 00:29:15;;;;;;;;;;;;;;;7.40;100.00;97586.31;5123212;28;19970;-77
2023/01/08 00:31:45;;;;;;;;;;;;;;;7.32;100.00;97586.78;5101042;28;19951;-77
2023/01/08 00:34:11;;;;;;;;;;;;;;;7.24;100.00;97592.53;5099667;28;19948;-76
2023/01/08 00:36:37;;;;;;;;;;;;;;;7.48;100.00;97585.88;5098991;28;19931;-76
2023/01/08 00:39:04;;;;;;;;;;;;;;;7.87;100.00;97581.19;5118627;28;20377;-75
2023/01/08 00:41:32;;;;;;;;;;;;;;;8.11;100.00;97571.78;5119895;28;19935;-75
2023/01/08 00:43:58;;;;;;;;;;;;;;;8.19;100.00;97563.34;5100656;28;19924;-75
2023/01/08 00:46:24;;;;;;;;;;;;;;;8.03;100.00;97559.78;5099537;28;19962;-74
2023/01/08 00:48:51;;;;;;;;;;;;;;;7.80;100.00;97556.69;5099056;28;19949;-77
2023/01/08 00:51:17;;;;;;;;;;;;;;;7.48;100.00;97554.81;5097451;28;19924;-76
2023/01/08 00:53:43;;;;;;;;;;;;;;;6.77;100.00;97558.56;5100177;27;19991;-79
2023/01/08 00:56:10;;;;;;;;;;;;;;;6.51;100.00;97557.41;5101411;28;20316;-76
2023/01/08 00:58:38;;;;;;;;;;;;;;;6.69;100.00;97552.84;5118719;28;19950;-75
2023/01/08 01:01:10;;;;;;;;;;;;;;;6.59;100.00;97553.53;5098745;28;19924;-75
2023/01/08 01:03:37;;;;;;;;;;;;;;;6.77;100.00;97560.41;5097886;28;19928;-76
2023/01/08 01:08:57;;;;;;;;;;;;;;;7.48;100.00;97552.16;5101403;28;19924;-75
2023/01/08 01:11:24;;;;;;;;;;;;;;;6.90;100.00;97560.03;5113760;28;19924;-76
2023/01/08 01:13:52;;;;;;;;;;;;;;;6.55;100.00;97554.28;5116309;28;19928;-75
2023/01/08 01:16:20;;;;;;;;;;;;;;;6.72;100.00;97561.13;5107063;28;19924;-75
2023/01/08 01:18:47;;;;;;;;;;;;;;;6.93;100.00;97562.19;5090048;28;19928;-75
2023/01/08 01:21:19;;;;;;;;;;;;;;;7.16;100.00;97561.91;5108000;28;19924;-76
2023/01/08 01:23:45;;;;;;;;;;;;;;;7.33;100.00;97569.78;5098713;28;19942;-75
2023/01/08 01:26:16;;;;;;;;;;;;;;;7.52;100.00;97568.41;5112694;28;20013;-76
2023/01/08 01:28:43;;;;;;;;;;;;;;;7.65;100.00;97570.63;5104362;28;19923;-76
2023/01/08 01:31:12;;;;;;;;;;;;;;;7.74;100.00;97563.78;5100808;28;19923;-76
2023/01/08 01:33:39;;;;;;;;;;;;;;;7.65;100.00;97567.97;5118280;28;19975;-77
2023/01/08 01:36:05;;;;;;;;;;;;;;;7.50;100.00;97565.97;5119039;28;19939;-76
2023/01/08 01:38:32;;;;;;;;;;;;;;;6.95;100.00;97560.06;5101771;28;19951;-76
2023/01/08 01:40:59;;;;;;;;;;;;;;;7.25;100.00;97552.44;5100313;28;20004;-76
2023/01/08 01:43:36;;;;;;;;;;;;;;;7.26;100.00;97548.75;5115992;28;20112;-76
2023/01/08 01:46:03;;;;;;;;;;;;;;;7.05;100.00;97552.25;5099130;28;19936;-74
2023/01/08 01:48:31;;;;;;;;;;;;;;;6.74;100.00;97555.59;5115321;28;19924;-75
2023/01/08 01:50:58;;;;;;;;;;;;;;;6.51;100.00;97552.09;5090931;28;19969;-75
2023/01/08 01:53:27;;;;;;;;;;;;;;;6.80;100.00;97546.63;5099818;28;19945;-75
2023/01/08 01:56:05;;;;;;;;;;;;;;;6.69;100.00;97539.56;5101780;28;19924;-75
2023/01/08 01:58:32;;;;;;;;;;;;;;;6.66;100.00;97540.88;5100033;28;19924;-74
2023/01/08 02:01:01;;;;;;;;;;;;;;;6.68;100.00;97540.66;5116888;28;19924;-74
2023/01/08 02:03:29;;;;;;;;;;;;;;;6.89;100.00;97538.00;5095966;28;19931;-74
2023/01/08 02:06:04;;;;;;;;;;;;;;;7.13;100.00;97543.81;5096398;28;19981;-75
2023/01/08 02:08:36;;;;;;;;;;;;;;;7.13;100.00;97529.72;5099244;28;20022;-75
2023/01/08 02:11:07;;;;;;;;;;;;;;;6.74;100.00;97537.81;5097515;28;19987;-74
2023/01/08 02:13:36;;;;;;;;;;;;;;;6.50;100.00;97529.28;5095334;28;19928;-74
2023/01/08 02:16:09;;;;;;;;;;;;;;;6.46;100.00;97527.38;5097814;28;19942;-74
2023/01/08 02:18:38;;;;;;;;;;;;;;;6.92;100.00;97523.41;5103093;28;19942;-74
2023/01/08 02:21:09;;;;;;;;;;;;;;;7.24;100.00;97526.16;5101654;28;20039;-74
2023/01/08 02:23:42;;;;;;;;;;;;;;;7.45;100.00;97536.72;5118282;28;19932;-75
2023/01/08 02:26:26;;;;;;;;;;;;;;;7.70;100.00;97522.84;5101908;28;19938;-74
2023/01/08 02:28:55;;;;;;;;;;;;;;;7.86;100.00;97521.09;5102342;28;19930;-75
2023/01/08 02:31:23;;;;;;;;;;;;;;;7.99;100.00;97520.66;5099099;28;19924;-76
2023/01/08 02:33:49;;;;;;;;;;;;;;;7.77;100.00;97515.44;5098954;28;19928;-76
2023/01/08 02:36:37;;;;;;;;;;;;;;;7.26;100.00;97516.88;5102494;28;19924;-75
2023/01/08 02:39:10;;;;;;;;;;;;;;;7.09;100.00;97518.81;5119220;28;19988;-76
2023/01/08 02:41:46;;;;;;;;;;;;;;;6.71;100.00;97517.06;5117381;28;19927;-76
2023/01/08 02:44:17;;;;;;;;;;;;;;;6.43;100.00;97506.66;5101818;28;19920;-76
2023/01/08 02:46:44;;;;;;;;;;;;;;;6.14;100.00;97506.00;5122704;28;19938;-74
2023/01/08 02:49:13;;;;;;;;;;;;;;;5.81;100.00;97490.13;5100176;28;19923;-75
2023/01/08 02:51:41;;;;;;;;;;;;;;;5.80;100.00;97496.44;5100095;28;20010;-75
2023/01/08 02:54:10;;;;;;;;;;;;;;;5.82;100.00;97489.84;5117881;28;19947;-75
2023/01/08 02:56:40;;;;;;;;;;;;;;;5.77;100.00;97489.78;5116334;28;19970;-75
2023/01/08 02:59:10;;;;;;;;;;;;;;;6.07;100.00;97492.09;5101365;28;19919;-75
2023/01/08 03:01:38;;;;;;;;;;;;;;;6.27;100.00;97486.28;5118386;28;20726;-76
2023/01/08 03:04:06;;;;;;;;;;;;;;;6.40;100.00;97497.34;5101755;28;19932;-75
2023/01/08 03:06:33;;;;;;;;;;;;;;;6.60;100.00;97498.59;5103794;28;19931;-75
2023/01/08 03:09:00;;;;;;;;;;;;;;;6.45;100.00;97496.59;5120301;28;20624;-75
2023/01/08 03:11:30;;;;;;;;;;;;;;;6.43;100.00;97488.06;5117860;28;19924;-74
2023/01/08 03:13:57;;;;;;;;;;;;;;;6.53;100.00;97494.28;5118332;28;19924;-75
2023/01/08 03:16:29;;;;;;;;;;;;;;;6.94;100.00;97489.44;5103091;28;19924;-75
2023/01/08 03:19:00;;;;;;;;;;;;;;;6.55;100.00;97495.91;5102467;28;19959;-75
2023/01/08 03:21:27;;;;;;;;;;;;;;;6.46;100.00;97483.09;5099514;28;19970;-75
2023/01/08 03:23:53;;;;;;;;;;;;;;;6.47;100.00;97482.03;5117998;28;19924;-74
2023/01/08 03:26:21;;;;;;;;;;;;;;;6.92;100.00;97486.25;5094419;28;20697;-74
2023/01/08 03:28:51;;;;;;;;;;;;;;;7.19;100.00;97479.09;5101273;28;19920;-75
2023/01/08 03:31:18;;;;;;;;;;;;;;;7.33;100.00;97474.97;5108535;28;20675;-74
2023/01/08 03:33:46;;;;;;;;;;;;;;;7.34;100.00;97473.91;5090653;28;19947;-75
2023/01/08 03:36:14;;;;;;;;;;;;;;;7.49;100.00;97481.19;5108640;28;19931;-75
2023/01/08 03:38:43;;;;;;;;;;;;;;;6.89;100.00;97476.94;5098204;28;20263;-75
2023/01/08 03:41:12;;;;;;;;;;;;;;;6.60;100.00;97488.81;5089912;28;19998;-75
2023/01/08 03:43:38;;;;;;;;;;;;;;;6.84;100.00;97481.41;5096531;28;19927;-74
2023/01/08 03:46:09;;;;;;;;;;;;;;;6.68;100.00;97469.00;5099976;28;19947;-74
2023/01/08 03:48:36;;;;;;;;;;;;;;;6.72;100.00;97475.41;5116265;28;19924;-75
2023/01/08 03:51:07;;;;;;;;;;;;;;;6.96;100.00;97480.19;5099955;28;19951;-75
2023/01/08 03:53:34;;;;;;;;;;;;;;;7.31;100.00;97463.78;5101425;28;19946;-75
2023/01/08 03:56:00;;;;;;;;;;;;;;;7.28;100.00;97452.84;5091048;28;19920;-75
2023/01/08 03:58:26;;;;;;;;;;;;;;;7.29;100.00;97446.50;5119601;28;20638;-75
2023/01/08 04:00:53;;;;;;;;;;;;;;;7.42;100.00;97438.94;5101464;28;19924;-76
2023/01/08 04:03:19;;;;;;;;;;;;;;;7.56;100.00;97447.25;5098142;28;19928;-75
2023/01/08 04:05:46;;;;;;;;;;;;;;;7.71;100.00;97449.19;5097591;28;19931;-75
2023/01/08 04:08:13;;;;;;;;;;;;;;;7.75;100.00;97460.94;5100513;28;19928;-75
2023/01/08 04:10:40;;;;;;;;;;;;;;;7.84;100.00;97454.09;5119240;28;19983;-75
2023/01/08 04:13:06;;;;;;;;;;;;;;;7.70;100.00;97442.31;5099077;28;19934;-75
2023/01/08 04:15:32;;;;;;;;;;;;;;;7.17;100.00;97432.59;5097538;28;19924;-73
2023/01/08 04:17:59;;;;;;;;;;;;;;;7.22;100.00;97438.75;5117542;28;19961;-74
2023/01/08 04:20:25;;;;;;;;;;;;;;;7.45;100.00;97435.75;5102208;28;19920;-74
2023/01/08 04:22:52;;;;;;;;;;;;;;;7.66;100.00;97420.75;5100779;28;19934;-74
2023/01/08 04:25:19;;;;;;;;;;;;;;;7.67;100.00;97432.19;5089258;28;19928;-75
2023/01/08 04:27:46;;;;;;;;;;;;;;;7.69;100.00;97422.91;5101533;28;19955;-74
2023/01/08 04:30:12;;;;;;;;;;;;;;;7.12;100.00;97411.31;5097128;28;19966;-74
2023/01/08 04:32:39;;;;;;;;;;;;;;;7.10;100.00;97410.75;5097018;28;20440;-74
2023/01/08 04:35:06;;;;;;;;;;;;;;;7.32;100.00;97414.94;5099133;28;19931;-74
2023/01/08 04:37:32;;;;;;;;;;;;;;;7.21;100.00;97410.56;5100512;28;19945;-75
2023/01/08 04:39:58;;;;;;;;;;;;;;;6.63;100.00;97406.06;5099422;28;20392;-75
2023/01/08 04:42:26;;;;;;;;;;;;;;;6.00;100.00;97403.22;5097290;28;19925;-75
2023/01/08 04:44:52;;;;;;;;;;;;;;;6.23;100.00;97401.09;5097211;28;19920;-74
2023/01/08 04:47:19;;;;;;;;;;;;;;;6.62;100.00;97401.03;5100584;28;19928;-74
2023/01/08 04:49:45;;;;;;;;;;;;;;;6.84;100.00;97381.31;5119353;28;19920;-75
2023/01/08 04:52:12;;;;;;;;;;;;;;;7.05;100.00;97382.31;5117344;28;20174;-75
2023/01/08 04:54:38;;;;;;;;;;;;;;;7.09;100.00;97382.63;5095833;28;19952;-74
2023/01/08 04:57:04;;;;;;;;;;;;;;;6.70;100.00;97377.47;5116682;28;19931;-74
2023/01/08 04:59:32;;;;;;;;;;;;;;;6.83;100.00;97379.75;5115912;28;19930;-75
2023/01/08 05:01:59;;;;;;;;;;;;;;;7.03;100.00;97368.47;5116364;28;19950;-75
2023/01/08 05:04:25;;;;;;;;;;;;;;;6.81;100.00;97365.09;5119026;28;19992;-75
2023/01/08 05:06:51;;;;;;;;;;;;;;;6.67;100.00;97363.91;5119788;28;20718;-75
2023/01/08 05:09:18;;;;;;;;;;;;;;;6.68;100.00;97361.03;5096922;28;19920;-75
2023/01/08 05:11:44;;;;;;;;;;;;;;;6.98;100.00;97360.47;5115350;28;19965;-75
2023/01/08 05:14:10;;;;;;;;;;;;;;;6.77;100.00;97358.72;5118093;28;19963;-75
2023/01/08 05:16:38;;;;;;;;;;;;;;;6.90;100.00;97345.03;5118799;28;20428;-75
2023/01/08 05:19:04;;;;;;;;;;;;;;;6.69;100.00;97357.31;5098716;28;19987;-73
2023/01/08 05:21:31;;;;;;;;;;;;;;;6.89;100.00;97356.69;5096695;28;19991;-74
2023/01/08 05:23:57;;;;;;;;;;;;;;;7.00;100.00;97356.53;5096938;28;19924;-74
2023/01/08 05:26:23;;;;;;;;;;;;;;;7.03;100.00;97356.00;5110809;28;19924;-75
2023/01/08 05:28:50;;;;;;;;;;;;;;;7.19;100.00;97351.63;5100217;28;19924;-75
2023/01/08 05:31:16;;;;;;;;;;;;;;;7.11;100.00;97352.09;5096365;28;19974;-75
2023/01/08 05:33:44;;;;;;;;;;;;;;;7.15;100.00;97355.06;5114896;28;19966;-75
2023/01/08 05:36:12;;;;;;;;;;;;;;;7.23;100.00;97363.34;5117357;28;19987;-74
2023/01/08 05:38:39;;;;;;;;;;;;;;;7.13;100.00;97355.28;5099851;28;19936;-74
2023/01/08 05:41:05;;;;;;;;;;;;;;;6.84;100.00;97359.31;5098348;28;19920;-74
2023/01/08 05:43:32;;;;;;;;;;;;;;;6.86;100.00;97359.84;5096389;28;19963;-74
2023/01/08 05:45:59;;;;;;;;;;;;;;;6.79;100.00;97360.06;5097503;28;19931;-74
2023/01/08 05:48:25;;;;;;;;;;;;;;;6.86;100.00;97349.25;5118136;28;19938;-74
2023/01/08 05:50:53;;;;;;;;;;;;;;;7.05;100.00;97356.56;5119166;28;19948;-74
2023/01/08 05:53:19;;;;;;;;;;;;;;;7.01;100.00;97357.31;5118770;28;19928;-74
2023/01/08 05:55:46;;;;;;;;;;;;;;;6.50;100.00;97342.78;5093356;28;19971;-74
2023/01/08 05:58:13;;;;;;;;;;;;;;;6.50;100.00;97350.75;5104712;28;19928;-75
2023/01/08 06:00:39;;;;;;;;;;;;;;;6.34;100.00;97355.13;5104764;28;20420;-74
2023/01/08 06:03:06;;;;;;;;;;;;;;;5.88;100.00;97347.69;5121224;28;19924;-74
2023/01/08 06:05:33;;;;;;;;;;;;;;;5.90;100.00;97348.22;5119588;28;20295;-74
2023/01/08 06:08:00;;;;;;;;;;;;;;;5.99;100.00;97352.06;5101794;28;20336;-74
2023/01/08 06:10:27;;;;;;;;;;;;;;;6.17;100.00;97354.38;5104219;28;19919;-74
2023/01/08 06:12:53;;;;;;;;;;;;;;;6.38;100.00;97364.16;5121898;28;19924;-74
2023/01/08 06:15:20;;;;;;;;;;;;;;;6.31;100.00;97358.22;5100097;28;20275;-74
2023/01/08 06:17:47;;;;;;;;;;;;;;;5.55;100.00;97363.63;5099648;28;19978;-73
2023/01/08 06:20:13;;;;;;;;;;;;;;;5.53;100.00;97357.78;5121032;28;20006;-74
2023/01/08 06:22:39;;;;;;;;;;;;;;;5.44;100.00;97365.34;5121566;28;19957;-74
2023/01/08 06:25:08;;;;;;;;;;;;;;;5.87;100.00;97372.56;5111117;28;19920;-74
2023/01/08 06:27:34;;;;;;;;;;;;;;;6.15;100.00;97364.44;5118034;28;19971;-74
2023/01/08 06:30:00;;;;;;;;;;;;;;;6.44;100.00;97371.13;5118914;28;19931;-75
2023/01/08 06:32:27;;;;;;;;;;;;;;;6.55;100.00;97369.38;5121530;28;19924;-74
2023/01/08 06:34:53;;;;;;;;;;;;;;;6.09;100.00;97362.78;5102774;28;19949;-74
2023/01/08 06:37:19;;;;;;;;;;;;;;;5.11;100.00;97355.56;5099722;28;19999;-74
2023/01/08 06:39:46;;;;;;;;;;;;;;;4.81;100.00;97342.66;5118267;28;19958;-74
2023/01/08 06:42:13;;;;;;;;;;;;;;;4.80;100.00;97353.47;5121010;28;19999;-74
2023/01/08 06:44:40;;;;;;;;;;;;;;;4.84;100.00;97346.69;5102733;28;19928;-74
2023/01/08 06:47:06;;;;;;;;;;;;;;;5.16;100.00;97353.03;5100722;28;19959;-74
2023/01/08 06:49:33;;;;;;;;;;;;;;;5.30;100.00;97358.75;5099236;28;19967;-74
2023/01/08 06:51:59;;;;;;;;;;;;;;;5.17;100.00;97364.41;5118127;28;19924;-74
2023/01/08 06:54:25;;;;;;;;;;;;;;;5.50;100.00;97360.91;5116222;28;19993;-74
2023/01/08 06:56:52;;;;;;;;;;;;;;;5.47;100.00;97361.41;5117368;28;19924;-74
2023/01/08 06:59:19;;;;;;;;;;;;;;;5.58;100.00;97357.84;5099015;28;19924;-74
2023/01/08 07:01:46;;;;;;;;;;;;;;;5.31;100.00;97361.19;5117800;28;19967;-74
2023/01/08 07:04:12;;;;;;;;;;;;;;;5.25;100.00;97350.75;5119755;28;19970;-75
2023/01/08 07:06:38;;;;;;;;;;;;;;;4.87;100.00;97348.84;5121403;28;19995;-75
2023/01/08 07:09:05;;;;;;;;;;;;;;;4.59;100.00;97347.06;5119513;28;19936;-75
2023/01/08 07:11:31;;;;;;;;;;;;;;;5.02;100.00;97359.66;5117720;28;20003;-75
2023/01/08 07:13:57;;;;;;;;;;;;;;;5.23;100.00;97363.44;5100195;28;19920;-75
2023/01/08 07:16:25;;;;;;;;;;;;;;;5.41;100.00;97355.25;5121136;28;19927;-74
2023/01/08 07:18:51;;;;;;;;;;;;;;;6.24;100.00;97364.78;5120767;28;19951;-74
2023/01/08 07:21:19;;;;;;;;;;;;;;;6.34;100.00;97364.91;5108536;28;19963;-74
2023/01/08 07:23:47;;;;;;;;;;;;;;;6.47;100.00;97357.34;5090240;28;19924;-74
2023/01/08 07:26:14;;;;;;;;;;;;;;;6.59;100.00;97354.56;5110943;28;20000;-74
2023/01/08 07:28:41;;;;;;;;;;;;;;;6.55;100.00;97357.97;5122016;28;19991;-75
2023/01/08 07:31:08;;;;;;;;;;;;;;;6.39;100.00;97364.97;5100082;28;19930;-75
2023/01/08 07:33:36;;;;;;;;;;;;;;;6.68;100.00;97362.88;5116990;28;19924;-75
2023/01/08 07:36:02;;;;;;;;;;;;;;;6.81;100.00;97375.72;5099520;28;19974;-75
2023/01/08 07:38:29;;;;;;;;;;;;;;;7.00;100.00;97376.94;5119891;28;19924;-75
2023/01/08 07:40:56;;;;;;;;;;;;;;;6.72;100.00;97374.56;5119859;28;19954;-74
2023/01/08 07:43:24;;;;;;;;;;;;;;;6.55;100.00;97381.84;5116285;28;19959;-74
2023/01/08 07:45:50;;;;;;;;;;;;;;;6.54;100.00;97378.38;5116504;28;19934;-75
2023/01/08 07:48:16;;;;;;;;;;;;;;;6.80;100.00;97364.31;5119571;28;19983;-74
2023/01/08 07:50:45;;;;;;;;;;;;;;;6.76;100.00;97357.91;5101744;28;20543;-74
2023/01/08 07:53:12;;;;;;;;;;;;;;;6.26;100.00;97360.84;5116657;28;19931;-74
2023/01/08 07:55:39;;;;;;;;;;;;;;;5.95;100.00;97356.22;5107510;28;19928;-74
2023/01/08 07:58:08;;;;;;;;;;;;;;;5.62;100.00;97369.56;5097509;28;19946;-75
2023/01/08 08:00:35;;;;;;;;;;;;;;;6.05;100.00;97366.97;5116463;28;19945;-74
2023/01/08 08:03:02;;;;;;;;;;;;;;;6.04;100.00;97370.66;5117424;28;19967;-76
2023/01/08 08:05:28;;;;;;;;;;;;;;;5.89;100.00;97358.03;5119407;28;19973;-75
2023/01/08 08:07:56;;;;;;;;;;;;;;;6.23;100.00;97369.28;5118968;28;19999;-75
2023/01/08 08:10:22;;;;;;;;;;;;;;;6.24;100.00;97365.59;5115760;28;19920;-75
2023/01/08 08:12:49;;;;;;;;;;;;;;;6.34;100.00;97364.91;5116001;28;19946;-75
2023/01/08 08:15:15;;;;;;;;;;;;;;;6.44;100.00;97368.47;5101145;28;19941;-75
2023/01/08 08:17:44;;;;;;;;;;;;;;;6.22;100.00;97367.69;5119326;28;19959;-75
2023/01/08 08:20:11;;;;;;;;;;;;;;;6.12;100.00;97358.84;5116328;28;19963;-75
2023/01/08 08:22:37;;;;;;;;;;;;;;;6.15;100.00;97367.09;5097532;28;19920;-75
2023/01/08 08:25:05;;;;;;;;;;;;;;;6.15;100.00;97367.09;5095072;28;19931;-75
2023/01/08 08:27:31;;;;;;;;;;;;;;;6.44;100.00;97359.69;5115607;28;20030;-75
2023/01/08 08:29:58;;;;;;;;;;;;;;;6.40;100.00;97356.78;5098199;28;19935;-75
2023/01/08 08:32:24;;;;;;;;;;;;;;;6.63;100.00;97353.00;5118854;28;19974;-75
2023/01/08 08:34:50;;;;;;;;;;;;;;;6.26;100.00;97354.72;5118976;28;19926;-74
2023/01/08 08:37:17;;;;;;;;;;;;;;;6.26;100.00;97363.50;5115497;28;19951;-75
2023/01/08 08:39:43;;;;;;;;;;;;;;;6.36;100.00;97366.25;5115642;28;19992;-75
2023/01/08 08:42:11;;;;;;;;;;;;;;;6.26;100.00;97374.09;5117331;28;19935;-75
2023/01/08 08:44:37;;;;;;;;;;;;;;;6.07;100.00;97356.09;5119070;28;19979;-75
2023/01/08 08:47:06;;;;;;;;;;;;;;;5.47;100.00;97350.81;5098897;28;19990;-75
2023/01/08 08:49:32;;;;;;;;;;;;;;;5.28;100.00;97353.72;5096836;28;19924;-75
2023/01/08 08:51:59;;;;;;;;;;;;;;;5.55;100.00;97368.91;5116283;28;20007;-75
2023/01/08 08:54:25;;;;;;;;;;;;;;;6.03;100.00;97373.56;5123303;28;19943;-75
2023/01/08 08:56:51;;;;;;;;;;;;;;;6.30;100.00;97375.22;5100869;28;19928;-74
2023/01/08 08:59:19;;;;;;;;;;;;;;;6.43;100.00;97374.84;5097233;28;19920;-75
2023/01/08 09:01:45;;;;;;;;;;;;;;;6.62;100.00;97377.16;5097837;28;19934;-74
2023/01/08 09:04:12;;;;;;;;;;;;;;;6.62;100.00;97377.16;5119897;28;19963;-75
2023/01/08 09:06:38;;;;;;;;;;;;;;;6.76;100.00;97367.72;5118982;28;19934;-74
2023/01/08 09:09:05;;;;;;;;;;;;;;;5.93;100.00;97369.75;5117569;28;20029;-73
2023/01/08 09:11:31;;;;;;;;;;;;;;;5.38;100.00;97371.63;5115628;28;20424;-72
2023/01/08 09:13:58;;;;;;;;;;;;;;;5.25;100.00;97375.41;5116455;28;20448;-76
2023/01/08 09:16:26;;;;;;;;;;;;;;;5.42;100.00;97373.50;5135426;27;19924;-72
2023/01/08 09:18:52;;;;;;;;;;;;;;;5.79;100.00;97376.41;5119276;28;19919;-71
2023/01/08 09:21:19;;;;;;;;;;;;;;;5.79;100.00;97378.25;5115137;28;19990;-70
2023/01/08 09:23:47;;;;;;;;;;;;;;;5.40;100.00;97370.31;5114617;28;19920;-71
2023/01/08 09:26:14;;;;;;;;;;;;;;;5.35;100.00;97367.56;5110320;28;19963;-72
2023/01/08 09:28:40;;;;;;;;;;;;;;;5.33;100.00;97369.69;5122965;28;20104;-73
2023/01/08 09:31:07;;;;;;;;;;;;;;;5.53;100.00;97371.03;5121348;28;19924;-72
2023/01/08 09:33:34;;;;;;;;;;;;;;;5.47;100.00;97379.94;5119454;28;19924;-73
2023/01/08 09:36:01;;;;;;;;;;;;;;;5.74;100.00;97378.19;5120452;28;19924;-73
2023/01/08 09:38:28;;;;;;;;;;;;;;;6.13;100.00;97379.00;5122374;28;19931;-73
2023/01/08 09:40:57;;;;;;;;;;;;;;;6.01;100.00;97373.00;5122230;28;19924;-74
2023/01/08 09:43:24;;;;;;;;;;;;;;;6.10;100.00;97369.66;5118902;28;19931;-74
2023/01/08 09:45:52;;;;;;;;;;;;;;;6.09;100.00;97370.75;5118689;28;19959;-74
2023/01/08 09:48:22;;;;;;;;;;;;;;;6.20;100.00;97369.78;5118298;28;20429;-75
2023/01/08 09:50:50;;;;;;;;;;;;;;;5.84;100.00;97380.97;5101195;28;19924;-74
2023/01/08 09:53:18;;;;;;;;;;;;;;;5.80;100.00;97377.22;5122301;28;20011;-75
2023/01/08 09:55:46;;;;;;;;;;;;;;;5.58;100.00;97374.53;5125699;27;19987;-76
2023/01/08 09:58:15;;;;;;;;;;;;;;;5.57;100.00;97374.78;5103060;28;19924;-75
2023/01/08 10:00:42;;;;;;;;;;;;;;;5.44;100.00;97374.09;5121589;28;19923;-73
2023/01/08 10:03:11;;;;;;;;;;;;;;;5.17;100.00;97364.41;5101585;28;19920;-72
2023/01/08 10:05:40;;;;;;;;;;;;;;;5.05;100.00;97356.53;5118629;28;19927;-73
2023/01/08 10:08:09;;;;;;;;;;;;;;;5.19;100.00;97368.41;5120577;28;19928;-73
2023/01/08 10:10:36;;;;;;;;;;;;;;;4.92;100.00;97356.06;5121417;28;19923;-74
2023/01/08 10:13:02;;;;;;;;;;;;;;;5.01;100.00;97354.63;5120341;28;19957;-73
2023/01/08 10:15:29;;;;;;;;;;;;;;;5.29;100.00;97354.53;5099814;28;19967;-72
2023/01/08 10:17:59;;;;;;;;;;;;;;;5.37;100.00;97349.63;5118365;28;19920;-73
2023/01/08 10:20:26;;;;;;;;;;;;;;;5.25;100.00;97348.91;5103600;28;19935;-70
2023/01/08 10:22:54;;;;;;;;;;;;;;;5.20;100.00;97337.47;5121606;28;19987;-69
2023/01/08 10:25:22;;;;;;;;;;;;;;;5.31;100.00;97344.50;5109646;28;19920;-73
2023/01/08 10:27:50;;;;;;;;;;;;;;;5.54;100.00;97338.19;5099602;28;19929;-74
2023/01/08 10:30:17;;;;;;;;;;;;;;;5.45;100.00;97341.25;5100885;28;19924;-72
2023/01/08 10:32:47;;;;;;;;;;;;;;;5.36;100.00;97334.78;5118369;28;19946;-71
2023/01/08 10:35:16;;;;;;;;;;;;;;;5.30;100.00;97325.16;5121959;28;19928;-73
2023/01/08 10:37:43;;;;;;;;;;;;;;;4.99;100.00;97319.66;5122076;28;19946;-73
2023/01/08 10:40:20;;;;;;;;;;;;;;;4.93;100.00;97310.84;5119617;28;19963;-70
2023/01/08 10:42:49;;;;;;;;;;;;;;;4.92;100.00;97308.44;5118603;28;19924;-72
2023/01/08 10:45:18;;;;;;;;;;;;;;;5.20;100.00;97303.81;5122802;28;19919;-75
2023/01/08 10:47:46;;;;;;;;;;;;;;;5.15;100.00;97295.81;5122313;28;19923;-74
2023/01/08 10:50:20;;;;;;;;;;;;;;;5.17;100.00;97300.88;5101074;28;19928;-74
2023/01/08 10:52:52;;;;;;;;;;;;;;;5.21;100.00;97297.50;5099858;28;19983;-74
2023/01/08 10:55:21;;;;;;;;;;;;;;;5.66;100.00;97302.63;5124660;28;19931;-74
2023/01/08 10:57:54;;;;;;;;;;;;;;;5.95;100.00;97313.84;5109211;28;19932;-75
2023/01/08 11:00:22;;;;;;;;;;;;;;;5.89;100.00;97301.56;5116987;28;19947;-73
2023/01/08 11:02:49;;;;;;;;;;;;;;;5.84;100.00;97298.84;5117143;28;20007;-75
2023/01/08 11:05:15;;;;;;;;;;;;;;;5.75;100.00;97302.97;5120335;28;19919;-75
2023/01/08 11:07:42;;;;;;;;;;;;;;;5.92;100.00;97303.72;5121012;28;19928;-78
2023/01/08 11:10:21;;;;;;;;;;;;;;;5.78;100.00;97297.19;5118777;28;20002;-72
2023/01/08 11:12:48;;;;;;;;;;;;;;;5.86;100.00;97288.81;5117406;28;19950;-72
2023/01/08 11:15:27;;;;;;;;;;;;;;;5.54;100.00;97283.38;5102311;28;19920;-71
2023/01/08 11:17:54;;;;;;;;;;;;;;;5.28;100.00;97276.97;5119894;28;19962;-70
2023/01/08 11:20:21;;;;;;;;;;;;;;;5.16;100.00;97276.25;5117511;28;20439;-74
2023/01/08 11:22:48;;;;;;;;;;;;;;;5.32;100.00;97270.09;5098570;28;20026;-70
2023/01/08 11:25:19;;;;;;;;;;;;;;;5.64;100.00;97283.50;5115006;28;19924;-74
2023/01/08 11:27:46;;;;;;;;;;;;;;;5.35;100.00;97285.50;5117577;28;20042;-72
2023/01/08 11:30:14;;;;;;;;;;;;;;;4.91;100.00;97278.53;5120504;28;19928;-74
2023/01/08 11:32:46;;;;;;;;;;;;;;;4.86;100.00;97278.44;5120786;28;19920;-72
2023/01/08 11:35:15;;;;;;;;;;;;;;;5.16;100.00;97268.31;5117880;28;19920;-71
2023/01/08 11:37:50;;;;;;;;;;;;;;;5.14;100.00;97280.16;5116433;28;19928;-71
2023/01/08 11:40:17;;;;;;;;;;;;;;;5.01;100.00;97280.53;5119350;28;19923;-73
2023/01/08 11:42:55;;;;;;;;;;;;;;;4.85;100.00;97276.88;5101786;28;19959;-73
2023/01/08 11:45:25;;;;;;;;;;;;;;;5.04;100.00;97286.16;5116342;28;19924;-73
2023/01/08 11:48:04;;;;;;;;;;;;;;;5.13;100.00;97279.41;5116254;28;19967;-74
2023/01/08 11:50:34;;;;;;;;;;;;;;;5.10;100.00;97287.81;5107575;28;19924;-73
2023/01/08 11:53:14;;;;;;;;;;;;;;;4.84;100.00;97272.59;5107911;28;19972;-71
2023/01/08 11:55:53;;;;;;;;;;;;;;;5.06;100.00;97277.97;5121184;27;19924;-71
2023/01/08 11:58:23;;;;;;;;;;;;;;;4.66;100.00;97268.38;5116140;28;19930;-74
2023/01/08 12:00:58;;;;;;;;;;;;;;;4.60;100.00;97250.03;5116271;28;20015;-70
2023/01/08 12:03:31;;;;;;;;;;;;;;;4.69;100.00;97245.94;5107802;28;19924;-72
2023/01/08 12:06:02;;;;;;;;;;;;;;;4.68;100.00;97250.41;5107619;28;19951;-73
2023/01/08 12:08:33;;;;;;;;;;;;;;;4.98;100.00;97250.06;5107569;28;19924;-70
2023/01/08 12:11:03;;;;;;;;;;;;;;;4.71;100.00;97246.47;5107334;28;19924;-74
2023/01/08 12:13:46;;;;;;;;;;;;;;;5.03;100.00;97257.28;5107741;28;19930;-72
2023/01/08 12:16:18;;;;;;;;;;;;;;;5.00;100.00;97247.97;5100149;28;19991;-74
2023/01/08 12:18:55;;;;;;;;;;;;;;;4.93;100.00;97231.47;5101116;28;19981;-71
2023/01/08 12:21:27;;;;;;;;;;;;;;;4.90;100.00;97231.94;5097452;28;19939;-70
2023/01/08 12:24:02;;;;;;;;;;;;;;;4.62;100.00;97229.41;5119670;27;19958;-72
2023/01/08 12:26:34;;;;;;;;;;;;;;;4.59;100.00;97219.31;5119205;28;19923;-71
2023/01/08 12:29:17;;;;;;;;;;;;;;;4.94;100.00;97227.78;5118184;28;19977;-72
2023/01/08 12:32:06;;;;;;;;;;;;;;;5.30;100.00;97229.03;5115549;28;19946;-73
2023/01/08 12:34:38;;;;;;;;;;;;;;;5.15;100.00;97228.84;5099174;28;19935;-70
2023/01/08 12:37:12;;;;;;;;;;;;;;;5.07;100.00;97224.00;5116147;28;20158;-69
2023/01/08 12:39:43;;;;;;;;;;;;;;;5.12;100.00;97222.22;5100526;28;20003;-71
2023/01/08 12:42:13;;;;;;;;;;;;;;;5.25;100.00;97229.78;5098115;28;19946;-72
2023/01/08 12:44:40;;;;;;;;;;;;;;;5.19;100.00;97224.69;5115173;28;19954;-71
2023/01/08 12:47:07;;;;;;;;;;;;;;;5.12;100.00;97224.84;5098606;28;19958;-70
2023/01/08 12:49:38;;;;;;;;;;;;;;;4.94;100.00;97230.44;5118248;28;19974;-71
2023/01/08 12:52:07;;;;;;;;;;;;;;;5.02;100.00;97224.72;5098653;28;19934;-72
2023/01/08 12:54:40;;;;;;;;;;;;;;;4.96;100.00;97219.59;5104354;28;19962;-72
2023/01/08 12:57:10;;;;;;;;;;;;;;;5.01;100.00;97217.84;5098187;28;19928;-72